Lafleche, Canada
Current Conditions -  °F | °C
As of 5:00 PM on Wednesday 22 Oct 2014 (Local Time) from CYMJ Reporting Station
Scattered Clouds Scattered Clouds  
Wind Chill: 57°   Ceiling: Unl
Heat Index: 57°   Visibility: 15mi
Dew Point: 45°   Wind: 9mph
Humidity: 63%   Direction: 280°W
Pressure: 29.75"   Gusts: NA
Location:  49.7°N, 106.57°W
Report Text: CYMJ 222300Z 28008KT 15SM FEW110 FEW200 SCT250 14/07 A2975 RMKAC2CC1CI1 SLP085
Loading
Personal Weather Stations






























Interactive Weather Map
Tropical Storm Tracking
New forecast layout! Learn more

10-Day Weather Forecast

Advertisements
Track Severe Weather on mobile